To NAV CANADA Home Page Login to a new session Search on AWWS site Feedback and Comments Disclaimer Vers la page française équivalente Tips FAQ What's new on the site To the Forecasts and Observations / NOTAM section To "File a Flight Plan" website Publications and other links Update of the User's profile FIC Telephone Numbers My Weather Data Folder Route Weather Data Regional Weather Data Local Weather Data To the Forecasts and Observations / NOTAM section
Request Generated 01/21/2017 at 02:03:14 UTC . Weather information available at that time is displayed.

METAR/TAF

FORT CHIPEWYAN/AB    (show WxCam)

METAR CYPY 210200Z AUTO 28007KT 6SM BR OVC004 M05/M05 A2942 RMK
SLP981=
SPECI CYPY 210153Z AUTO 29006KT 6SM BR OVC004 M05/M05 A2942 RMK
SLP980=
SPECI CYPY 210144Z AUTO 28007KT 5SM BR OVC004 M05/M05 A2942 RMK
SLP980=
SPECI CYPY 210124Z AUTO 27007KT 6SM BR OVC004 M04/M04 A2941 RMK
SLP977=
SPECI CYPY 210114Z AUTO 25006KT 3SM BR OVC002 M04/M04 A2941 RMK
SLP975=
SPECI CYPY 210111Z AUTO 25006KT 2 1/2SM BR OVC002 M04/M04 A2941 RMK
SLP975=
SPECI CYPY 210102Z AUTO 24003KT 2SM BR OVC002 M04/M04 A2940 RMK
SLP974=
METAR CYPY 210100Z AUTO 25002KT 2 1/2SM BR OVC002 M04/M04 A2940 RMK
SLP974=
SPECI CYPY 210055Z AUTO 24003KT 180V250 2 1/2SM BR OVC002 M04/M04
A2940 RMK SLP973=
SPECI CYPY 210047Z AUTO 21003KT 180V250 1 1/2SM BR OVC002 M04/M04
A2940 RMK SLP972=
METAR CYPY 210000Z AUTO 24004KT 1SM BR OVC004 M04/M04 A2938 RMK
SLP966=

*** REMARK        : Forecast period has ended; this was the last TAF issued
*** REMARQUE : La période de prévision est échue; ceci était le dernier TAF qui a été émis
TAF AMD CYPY 201920Z 2019/2022 VRB03KT 2SM -SN BR BKN004 OVC012 TEMPO
2019/2022 P6SM NSW SCT005 OVC012 PROB40 2019/2022 2SM -FZDZ BR
RMK FCST BASED ON AUTO OBS. NXT FCST WILL BE ISSUED AT 211245Z=
Your time UTC time
Weather data provided by Environment Canada and NAV CANADA